Carmona, Texas
Current Conditions -  °F | °C
As of 5:53 PM on Friday 19 Dec 2014 (Local Time) from KLFK Reporting Station
Overcast Overcast  
Wind Chill: 53°   Ceiling: 600
Heat Index: 53°   Visibility: 8mi
Dew Point: 49°   Wind: 7mph
Humidity: 86%   Direction: 10°N
Pressure: 30.1"   Gusts: NA
Location:  31.024°N, 94.7686°W
Report Text: KLFK 192353Z AUTO 01006KT 8SM OVC006 12/09 A3010 RMK AO2 SLP193 60001 T01170094 10128 20117 53012
Loading
Personal Weather Stations






























Interactive Weather Map New forecast layout! Learn more

10-Day Weather Forecast

Advertisements
Track Severe Weather on mobile